sensor_id;sensor_type;location;lat;lon;timestamp;P1;durP1;ratioP1;P2;durP2;ratioP2
11422;SDS011;5768;51.476;7.210;2024-03-06T00:00:01;36.63;;;25.87;;
11422;SDS011;5768;51.476;7.210;2024-03-06T00:05:04;36.00;;;25.87;;
11422;SDS011;5768;51.476;7.210;2024-03-06T00:10:09;33.37;;;25.37;;
11422;SDS011;5768;51.476;7.210;2024-03-06T00:15:11;32.27;;;23.80;;
11422;SDS011;5768;51.476;7.210;2024-03-06T00:20:14;32.47;;;23.53;;
11422;SDS011;5768;51.476;7.210;2024-03-06T00:25:18;33.93;;;23.73;;
11422;SDS011;5768;51.476;7.210;2024-03-06T00:30:20;33.63;;;22.90;;
11422;SDS011;5768;51.476;7.210;2024-03-06T00:35:23;28.97;;;22.53;;
11422;SDS011;5768;51.476;7.210;2024-03-06T00:40:26;30.37;;;23.63;;
11422;SDS011;5768;51.476;7.210;2024-03-06T00:45:30;29.03;;;21.63;;
11422;SDS011;5768;51.476;7.210;2024-03-06T00:50:33;26.93;;;21.83;;
11422;SDS011;5768;51.476;7.210;2024-03-06T00:55:37;28.17;;;21.73;;
11422;SDS011;5768;51.476;7.210;2024-03-06T01:00:39;34.67;;;23.03;;
11422;SDS011;5768;51.476;7.210;2024-03-06T01:05:41;26.97;;;21.80;;
11422;SDS011;5768;51.476;7.210;2024-03-06T01:10:45;30.37;;;21.63;;
11422;SDS011;5768;51.476;7.210;2024-03-06T01:15:47;32.30;;;23.10;;
11422;SDS011;5768;51.476;7.210;2024-03-06T01:20:50;31.10;;;22.40;;
11422;SDS011;5768;51.476;7.210;2024-03-06T01:25:54;31.07;;;22.73;;
11422;SDS011;5768;51.476;7.210;2024-03-06T01:30:56;29.47;;;21.87;;
11422;SDS011;5768;51.476;7.210;2024-03-06T01:35:59;27.60;;;21.10;;
11422;SDS011;5768;51.476;7.210;2024-03-06T01:41:03;34.70;;;23.13;;
11422;SDS011;5768;51.476;7.210;2024-03-06T01:46:07;34.03;;;23.07;;
11422;SDS011;5768;51.476;7.210;2024-03-06T01:51:09;36.87;;;23.90;;
11422;SDS011;5768;51.476;7.210;2024-03-06T01:56:13;36.80;;;23.60;;
11422;SDS011;5768;51.476;7.210;2024-03-06T02:01:17;39.53;;;24.80;;
11422;SDS011;5768;51.476;7.210;2024-03-06T02:06:20;40.27;;;25.30;;
11422;SDS011;5768;51.476;7.210;2024-03-06T02:11:24;40.60;;;24.90;;
11422;SDS011;5768;51.476;7.210;2024-03-06T02:16:28;40.50;;;25.27;;
11422;SDS011;5768;51.476;7.210;2024-03-06T02:21:34;41.80;;;25.33;;
11422;SDS011;5768;51.476;7.210;2024-03-06T02:26:36;47.17;;;25.13;;
11422;SDS011;5768;51.476;7.210;2024-03-06T02:31:38;45.00;;;26.10;;
11422;SDS011;5768;51.476;7.210;2024-03-06T02:36:42;43.97;;;26.43;;
11422;SDS011;5768;51.476;7.210;2024-03-06T02:41:44;50.90;;;28.10;;
11422;SDS011;5768;51.476;7.210;2024-03-06T02:46:47;46.80;;;27.13;;
11422;SDS011;5768;51.476;7.210;2024-03-06T02:51:52;43.23;;;25.93;;
11422;SDS011;5768;51.476;7.210;2024-03-06T02:56:54;46.07;;;26.63;;
11422;SDS011;5768;51.476;7.210;2024-03-06T03:01:56;47.83;;;27.03;;
11422;SDS011;5768;51.476;7.210;2024-03-06T03:07:00;48.93;;;26.43;;
11422;SDS011;5768;51.476;7.210;2024-03-06T03:12:02;45.40;;;25.53;;
11422;SDS011;5768;51.476;7.210;2024-03-06T03:17:04;42.90;;;25.30;;
11422;SDS011;5768;51.476;7.210;2024-03-06T03:22:08;42.07;;;24.33;;
11422;SDS011;5768;51.476;7.210;2024-03-06T03:27:10;43.73;;;24.60;;
11422;SDS011;5768;51.476;7.210;2024-03-06T03:32:13;45.70;;;24.67;;
11422;SDS011;5768;51.476;7.210;2024-03-06T03:37:18;42.20;;;24.73;;
11422;SDS011;5768;51.476;7.210;2024-03-06T03:42:20;45.60;;;25.73;;
11422;SDS011;5768;51.476;7.210;2024-03-06T03:47:22;42.40;;;26.00;;
11422;SDS011;5768;51.476;7.210;2024-03-06T03:52:25;39.40;;;24.10;;
11422;SDS011;5768;51.476;7.210;2024-03-06T03:57:27;41.03;;;24.47;;
11422;SDS011;5768;51.476;7.210;2024-03-06T04:02:30;36.67;;;23.10;;
11422;SDS011;5768;51.476;7.210;2024-03-06T04:07:35;37.87;;;22.83;;
11422;SDS011;5768;51.476;7.210;2024-03-06T04:12:37;33.97;;;23.27;;
11422;SDS011;5768;51.476;7.210;2024-03-06T04:17:40;34.10;;;23.10;;
11422;SDS011;5768;51.476;7.210;2024-03-06T04:22:44;33.43;;;22.37;;
11422;SDS011;5768;51.476;7.210;2024-03-06T04:27:48;34.33;;;22.53;;
11422;SDS011;5768;51.476;7.210;2024-03-06T04:32:50;32.90;;;22.87;;
11422;SDS011;5768;51.476;7.210;2024-03-06T04:37:53;33.20;;;22.43;;
11422;SDS011;5768;51.476;7.210;2024-03-06T04:42:56;35.13;;;23.57;;
11422;SDS011;5768;51.476;7.210;2024-03-06T04:47:58;36.17;;;23.20;;
11422;SDS011;5768;51.476;7.210;2024-03-06T04:53:02;34.73;;;22.73;;
11422;SDS011;5768;51.476;7.210;2024-03-06T04:58:04;33.93;;;22.90;;
11422;SDS011;5768;51.476;7.210;2024-03-06T05:03:06;35.00;;;22.93;;
11422;SDS011;5768;51.476;7.210;2024-03-06T05:08:10;34.90;;;23.20;;
11422;SDS011;5768;51.476;7.210;2024-03-06T05:13:12;31.20;;;22.20;;
11422;SDS011;5768;51.476;7.210;2024-03-06T05:18:15;33.30;;;22.50;;
11422;SDS011;5768;51.476;7.210;2024-03-06T05:23:18;36.87;;;23.57;;
11422;SDS011;5768;51.476;7.210;2024-03-06T05:28:21;42.43;;;24.90;;
11422;SDS011;5768;51.476;7.210;2024-03-06T05:33:23;39.43;;;23.50;;
11422;SDS011;5768;51.476;7.210;2024-03-06T05:38:28;40.77;;;24.83;;
11422;SDS011;5768;51.476;7.210;2024-03-06T05:43:30;39.03;;;23.27;;
11422;SDS011;5768;51.476;7.210;2024-03-06T05:48:32;40.47;;;24.03;;
11422;SDS011;5768;51.476;7.210;2024-03-06T05:53:40;41.77;;;24.97;;
11422;SDS011;5768;51.476;7.210;2024-03-06T05:58:44;41.20;;;24.33;;
11422;SDS011;5768;51.476;7.210;2024-03-06T06:03:47;44.27;;;25.37;;
11422;SDS011;5768;51.476;7.210;2024-03-06T06:08:51;42.60;;;24.97;;
11422;SDS011;5768;51.476;7.210;2024-03-06T06:13:53;43.27;;;25.77;;
11422;SDS011;5768;51.476;7.210;2024-03-06T06:18:55;44.63;;;25.17;;
11422;SDS011;5768;51.476;7.210;2024-03-06T06:23:59;48.80;;;26.67;;
11422;SDS011;5768;51.476;7.210;2024-03-06T06:29:01;51.57;;;26.70;;
11422;SDS011;5768;51.476;7.210;2024-03-06T06:34:04;48.37;;;25.87;;
11422;SDS011;5768;51.476;7.210;2024-03-06T06:39:08;53.43;;;26.57;;
11422;SDS011;5768;51.476;7.210;2024-03-06T06:44:12;47.07;;;25.67;;
11422;SDS011;5768;51.476;7.210;2024-03-06T06:49:14;68.50;;;44.70;;
11422;SDS011;5768;51.476;7.210;2024-03-06T06:54:19;61.03;;;29.80;;
11422;SDS011;5768;51.476;7.210;2024-03-06T06:59:21;56.47;;;27.73;;
11422;SDS011;5768;51.476;7.210;2024-03-06T07:04:23;53.20;;;27.07;;
11422;SDS011;5768;51.476;7.210;2024-03-06T07:09:27;50.00;;;28.10;;
11422;SDS011;5768;51.476;7.210;2024-03-06T07:14:31;43.57;;;27.13;;
11422;SDS011;5768;51.476;7.210;2024-03-06T07:19:33;51.13;;;29.03;;
11422;SDS011;5768;51.476;7.210;2024-03-06T07:24:36;54.53;;;30.13;;
11422;SDS011;5768;51.476;7.210;2024-03-06T07:29:39;53.53;;;30.27;;
11422;SDS011;5768;51.476;7.210;2024-03-06T07:34:41;45.90;;;27.83;;
11422;SDS011;5768;51.476;7.210;2024-03-06T07:39:45;53.67;;;29.03;;
11422;SDS011;5768;51.476;7.210;2024-03-06T07:44:50;62.20;;;33.83;;
11422;SDS011;5768;51.476;7.210;2024-03-06T07:49:52;54.40;;;30.87;;
11422;SDS011;5768;51.476;7.210;2024-03-06T07:54:56;57.00;;;31.30;;
11422;SDS011;5768;51.476;7.210;2024-03-06T07:59:59;54.43;;;31.20;;
11422;SDS011;5768;51.476;7.210;2024-03-06T08:05:01;52.00;;;31.33;;
11422;SDS011;5768;51.476;7.210;2024-03-06T08:10:05;50.00;;;30.67;;
11422;SDS011;5768;51.476;7.210;2024-03-06T08:15:10;49.37;;;30.10;;
11422;SDS011;5768;51.476;7.210;2024-03-06T08:20:14;49.17;;;30.57;;
11422;SDS011;5768;51.476;7.210;2024-03-06T08:25:18;44.90;;;30.17;;
11422;SDS011;5768;51.476;7.210;2024-03-06T08:30:21;44.53;;;28.47;;
11422;SDS011;5768;51.476;7.210;2024-03-06T08:35:23;41.17;;;28.47;;
11422;SDS011;5768;51.476;7.210;2024-03-06T08:40:27;56.43;;;36.53;;
11422;SDS011;5768;51.476;7.210;2024-03-06T08:45:29;42.57;;;29.53;;
11422;SDS011;5768;51.476;7.210;2024-03-06T08:50:32;44.60;;;29.80;;
11422;SDS011;5768;51.476;7.210;2024-03-06T08:55:36;41.30;;;28.33;;
11422;SDS011;5768;51.476;7.210;2024-03-06T09:00:39;40.90;;;28.53;;
11422;SDS011;5768;51.476;7.210;2024-03-06T09:05:41;36.47;;;28.00;;
11422;SDS011;5768;51.476;7.210;2024-03-06T09:10:46;38.30;;;29.77;;
11422;SDS011;5768;51.476;7.210;2024-03-06T09:15:49;41.37;;;29.80;;
11422;SDS011;5768;51.476;7.210;2024-03-06T09:20:51;31.97;;;27.10;;
11422;SDS011;5768;51.476;7.210;2024-03-06T09:25:55;31.17;;;25.40;;
11422;SDS011;5768;51.476;7.210;2024-03-06T09:30:57;30.02;;;24.77;;
11422;SDS011;5768;51.476;7.210;2024-03-06T09:36:01;24.83;;;21.13;;
11422;SDS011;5768;51.476;7.210;2024-03-06T09:41:06;22.83;;;20.42;;
11422;SDS011;5768;51.476;7.210;2024-03-06T09:46:10;27.10;;;23.17;;
11422;SDS011;5768;51.476;7.210;2024-03-06T09:51:12;28.60;;;23.65;;
11422;SDS011;5768;51.476;7.210;2024-03-06T09:56:16;25.98;;;23.17;;
11422;SDS011;5768;51.476;7.210;2024-03-06T10:01:20;28.02;;;22.50;;
11422;SDS011;5768;51.476;7.210;2024-03-06T10:06:26;26.63;;;22.48;;
11422;SDS011;5768;51.476;7.210;2024-03-06T10:11:32;27.02;;;24.10;;
11422;SDS011;5768;51.476;7.210;2024-03-06T10:16:55;30.58;;;26.20;;
11422;SDS011;5768;51.476;7.210;2024-03-06T10:22:00;29.48;;;24.83;;
11422;SDS011;5768;51.476;7.210;2024-03-06T10:27:05;33.30;;;24.77;;
11422;SDS011;5768;51.476;7.210;2024-03-06T10:32:09;27.25;;;24.20;;
11422;SDS011;5768;51.476;7.210;2024-03-06T10:37:12;26.35;;;23.20;;
11422;SDS011;5768;51.476;7.210;2024-03-06T10:42:17;22.95;;;19.98;;
11422;SDS011;5768;51.476;7.210;2024-03-06T10:47:22;27.48;;;23.75;;
11422;SDS011;5768;51.476;7.210;2024-03-06T10:52:27;27.63;;;24.40;;
11422;SDS011;5768;51.476;7.210;2024-03-06T10:57:33;24.75;;;21.88;;
11422;SDS011;5768;51.476;7.210;2024-03-06T11:02:39;24.25;;;21.20;;
11422;SDS011;5768;51.476;7.210;2024-03-06T11:07:42;22.75;;;19.27;;
11422;SDS011;5768;51.476;7.210;2024-03-06T11:12:46;20.52;;;18.33;;
11422;SDS011;5768;51.476;7.210;2024-03-06T11:17:50;19.33;;;17.42;;
11422;SDS011;5768;51.476;7.210;2024-03-06T11:23:04;20.98;;;18.75;;
11422;SDS011;5768;51.476;7.210;2024-03-06T11:28:15;20.38;;;17.02;;
11422;SDS011;5768;51.476;7.210;2024-03-06T11:33:20;17.70;;;15.85;;
11422;SDS011;5768;51.476;7.210;2024-03-06T11:38:23;21.52;;;19.23;;
11422;SDS011;5768;51.476;7.210;2024-03-06T11:43:28;26.60;;;21.85;;
11422;SDS011;5768;51.476;7.210;2024-03-06T11:48:30;23.90;;;21.38;;
11422;SDS011;5768;51.476;7.210;2024-03-06T11:53:33;22.65;;;20.17;;
11422;SDS011;5768;51.476;7.210;2024-03-06T11:58:39;19.40;;;17.35;;
11422;SDS011;5768;51.476;7.210;2024-03-06T12:03:41;18.80;;;16.83;;
11422;SDS011;5768;51.476;7.210;2024-03-06T12:08:44;19.08;;;17.08;;
11422;SDS011;5768;51.476;7.210;2024-03-06T12:13:48;19.52;;;17.45;;
11422;SDS011;5768;51.476;7.210;2024-03-06T12:18:54;19.20;;;15.25;;
11422;SDS011;5768;51.476;7.210;2024-03-06T12:24:03;17.58;;;15.35;;
11422;SDS011;5768;51.476;7.210;2024-03-06T12:29:11;17.05;;;15.25;;
11422;SDS011;5768;51.476;7.210;2024-03-06T12:34:13;18.77;;;15.30;;
11422;SDS011;5768;51.476;7.210;2024-03-06T12:39:17;17.35;;;15.45;;
11422;SDS011;5768;51.476;7.210;2024-03-06T12:44:24;16.58;;;14.68;;
11422;SDS011;5768;51.476;7.210;2024-03-06T12:49:26;16.52;;;14.15;;
11422;SDS011;5768;51.476;7.210;2024-03-06T12:54:29;16.00;;;14.40;;
11422;SDS011;5768;51.476;7.210;2024-03-06T12:59:32;14.45;;;12.95;;
11422;SDS011;5768;51.476;7.210;2024-03-06T13:04:35;11.25;;;10.05;;
11422;SDS011;5768;51.476;7.210;2024-03-06T13:09:37;11.73;;;10.63;;
11422;SDS011;5768;51.476;7.210;2024-03-06T13:14:40;10.00;;;9.00;;
11422;SDS011;5768;51.476;7.210;2024-03-06T13:19:43;11.38;;;10.27;;
11422;SDS011;5768;51.476;7.210;2024-03-06T13:24:46;13.55;;;12.25;;
11422;SDS011;5768;51.476;7.210;2024-03-06T13:29:50;13.98;;;12.57;;
11422;SDS011;5768;51.476;7.210;2024-03-06T13:34:52;18.10;;;16.20;;
11422;SDS011;5768;51.476;7.210;2024-03-06T13:39:55;20.98;;;19.02;;
11422;SDS011;5768;51.476;7.210;2024-03-06T13:45:03;21.83;;;19.75;;
11422;SDS011;5768;51.476;7.210;2024-03-06T13:50:12;20.60;;;18.70;;
11422;SDS011;5768;51.476;7.210;2024-03-06T13:55:16;22.92;;;20.52;;
11422;SDS011;5768;51.476;7.210;2024-03-06T14:00:20;20.80;;;18.90;;
11422;SDS011;5768;51.476;7.210;2024-03-06T14:05:23;21.85;;;19.75;;
11422;SDS011;5768;51.476;7.210;2024-03-06T14:10:26;20.90;;;18.92;;
11422;SDS011;5768;51.476;7.210;2024-03-06T14:15:31;19.02;;;17.13;;
11422;SDS011;5768;51.476;7.210;2024-03-06T14:20:33;18.27;;;16.48;;
11422;SDS011;5768;51.476;7.210;2024-03-06T14:25:36;18.60;;;16.70;;
11422;SDS011;5768;51.476;7.210;2024-03-06T14:30:40;17.65;;;16.00;;
11422;SDS011;5768;51.476;7.210;2024-03-06T14:35:43;16.40;;;14.70;;
11422;SDS011;5768;51.476;7.210;2024-03-06T14:40:46;14.80;;;13.40;;
11422;SDS011;5768;51.476;7.210;2024-03-06T14:45:50;15.57;;;14.07;;
11422;SDS011;5768;51.476;7.210;2024-03-06T14:50:52;14.38;;;13.05;;
11422;SDS011;5768;51.476;7.210;2024-03-06T14:55:54;14.63;;;13.20;;
11422;SDS011;5768;51.476;7.210;2024-03-06T15:00:58;14.10;;;12.80;;
11422;SDS011;5768;51.476;7.210;2024-03-06T15:06:00;13.57;;;12.27;;
11422;SDS011;5768;51.476;7.210;2024-03-06T15:11:03;13.02;;;11.80;;
11422;SDS011;5768;51.476;7.210;2024-03-06T15:16:06;12.52;;;11.27;;
11422;SDS011;5768;51.476;7.210;2024-03-06T15:21:09;10.75;;;9.75;;
11422;SDS011;5768;51.476;7.210;2024-03-06T15:26:11;10.85;;;9.85;;
11422;SDS011;5768;51.476;7.210;2024-03-06T15:31:15;10.95;;;9.95;;
11422;SDS011;5768;51.476;7.210;2024-03-06T15:36:17;9.73;;;8.18;;
11422;SDS011;5768;51.476;7.210;2024-03-06T15:41:19;8.50;;;7.70;;
11422;SDS011;5768;51.476;7.210;2024-03-06T15:46:23;8.65;;;7.57;;
11422;SDS011;5768;51.476;7.210;2024-03-06T15:51:26;7.65;;;6.97;;
11422;SDS011;5768;51.476;7.210;2024-03-06T15:56:28;8.20;;;7.40;;
11422;SDS011;5768;51.476;7.210;2024-03-06T16:01:33;8.40;;;7.60;;
11422;SDS011;5768;51.476;7.210;2024-03-06T16:06:35;12.27;;;11.07;;
11422;SDS011;5768;51.476;7.210;2024-03-06T16:11:38;13.13;;;11.93;;
11422;SDS011;5768;51.476;7.210;2024-03-06T16:16:41;14.05;;;12.75;;
11422;SDS011;5768;51.476;7.210;2024-03-06T16:21:45;14.98;;;13.57;;
11422;SDS011;5768;51.476;7.210;2024-03-06T16:26:47;14.90;;;13.60;;
11422;SDS011;5768;51.476;7.210;2024-03-06T16:31:50;14.98;;;13.45;;
11422;SDS011;5768;51.476;7.210;2024-03-06T16:36:52;15.55;;;14.00;;
11422;SDS011;5768;51.476;7.210;2024-03-06T16:41:55;15.88;;;14.38;;
11422;SDS011;5768;51.476;7.210;2024-03-06T16:46:58;15.93;;;14.43;;
11422;SDS011;5768;51.476;7.210;2024-03-06T16:52:00;16.73;;;15.05;;
11422;SDS011;5768;51.476;7.210;2024-03-06T16:57:04;17.35;;;15.73;;
11422;SDS011;5768;51.476;7.210;2024-03-06T17:02:08;18.00;;;16.17;;
11422;SDS011;5768;51.476;7.210;2024-03-06T17:07:10;18.85;;;16.95;;
11422;SDS011;5768;51.476;7.210;2024-03-06T17:12:12;19.95;;;16.63;;
11422;SDS011;5768;51.476;7.210;2024-03-06T17:17:18;20.27;;;17.20;;
11422;SDS011;5768;51.476;7.210;2024-03-06T17:22:21;18.08;;;16.27;;
11422;SDS011;5768;51.476;7.210;2024-03-06T17:27:23;19.73;;;17.70;;
11422;SDS011;5768;51.476;7.210;2024-03-06T17:32:27;20.58;;;18.50;;
11422;SDS011;5768;51.476;7.210;2024-03-06T17:37:30;19.92;;;17.92;;
11422;SDS011;5768;51.476;7.210;2024-03-06T17:42:32;20.92;;;18.75;;
11422;SDS011;5768;51.476;7.210;2024-03-06T17:47:36;20.15;;;18.05;;
11422;SDS011;5768;51.476;7.210;2024-03-06T17:52:39;23.55;;;19.38;;
11422;SDS011;5768;51.476;7.210;2024-03-06T17:57:42;20.80;;;18.67;;
11422;SDS011;5768;51.476;7.210;2024-03-06T18:02:47;21.70;;;19.50;;
11422;SDS011;5768;51.476;7.210;2024-03-06T18:07:51;22.00;;;19.65;;
11422;SDS011;5768;51.476;7.210;2024-03-06T18:12:55;20.95;;;18.75;;
11422;SDS011;5768;51.476;7.210;2024-03-06T18:17:59;21.85;;;19.52;;
11422;SDS011;5768;51.476;7.210;2024-03-06T18:23:01;21.90;;;19.60;;
11422;SDS011;5768;51.476;7.210;2024-03-06T18:28:04;21.38;;;19.13;;
11422;SDS011;5768;51.476;7.210;2024-03-06T18:33:08;22.05;;;19.80;;
11422;SDS011;5768;51.476;7.210;2024-03-06T18:38:10;22.50;;;20.20;;
11422;SDS011;5768;51.476;7.210;2024-03-06T18:43:12;23.05;;;20.63;;
11422;SDS011;5768;51.476;7.210;2024-03-06T18:48:16;24.63;;;20.55;;
11422;SDS011;5768;51.476;7.210;2024-03-06T18:53:18;24.90;;;21.50;;
11422;SDS011;5768;51.476;7.210;2024-03-06T18:58:21;23.35;;;20.60;;
11422;SDS011;5768;51.476;7.210;2024-03-06T19:03:24;23.38;;;20.85;;
11422;SDS011;5768;51.476;7.210;2024-03-06T19:08:26;26.30;;;21.77;;
11422;SDS011;5768;51.476;7.210;2024-03-06T19:13:28;25.73;;;22.42;;
11422;SDS011;5768;51.476;7.210;2024-03-06T19:18:32;24.77;;;21.60;;
11422;SDS011;5768;51.476;7.210;2024-03-06T19:23:34;25.48;;;22.30;;
11422;SDS011;5768;51.476;7.210;2024-03-06T19:28:36;24.83;;;21.52;;
11422;SDS011;5768;51.476;7.210;2024-03-06T19:33:40;27.37;;;22.27;;
11422;SDS011;5768;51.476;7.210;2024-03-06T19:38:42;25.58;;;22.13;;
11422;SDS011;5768;51.476;7.210;2024-03-06T19:43:44;27.30;;;22.27;;
11422;SDS011;5768;51.476;7.210;2024-03-06T19:48:48;25.92;;;23.10;;
11422;SDS011;5768;51.476;7.210;2024-03-06T19:53:50;28.38;;;23.52;;
11422;SDS011;5768;51.476;7.210;2024-03-06T19:58:53;30.70;;;24.02;;
11422;SDS011;5768;51.476;7.210;2024-03-06T20:03:56;27.23;;;23.75;;
11422;SDS011;5768;51.476;7.210;2024-03-06T20:09:00;28.77;;;24.17;;
11422;SDS011;5768;51.476;7.210;2024-03-06T20:14:04;29.87;;;25.07;;
11422;SDS011;5768;51.476;7.210;2024-03-06T20:19:08;33.25;;;24.98;;
11422;SDS011;5768;51.476;7.210;2024-03-06T20:24:10;31.50;;;24.77;;
11422;SDS011;5768;51.476;7.210;2024-03-06T20:29:14;31.10;;;25.40;;
11422;SDS011;5768;51.476;7.210;2024-03-06T20:34:17;35.00;;;24.60;;
11422;SDS011;5768;51.476;7.210;2024-03-06T20:39:20;35.90;;;26.73;;
11422;SDS011;5768;51.476;7.210;2024-03-06T20:44:22;35.80;;;28.07;;
11422;SDS011;5768;51.476;7.210;2024-03-06T20:49:25;35.60;;;27.57;;
11422;SDS011;5768;51.476;7.210;2024-03-06T20:54:28;37.87;;;27.47;;
11422;SDS011;5768;51.476;7.210;2024-03-06T20:59:30;37.47;;;27.67;;
11422;SDS011;5768;51.476;7.210;2024-03-06T21:04:34;36.83;;;27.83;;
11422;SDS011;5768;51.476;7.210;2024-03-06T21:09:37;35.20;;;27.57;;
11422;SDS011;5768;51.476;7.210;2024-03-06T21:14:43;40.77;;;29.13;;
11422;SDS011;5768;51.476;7.210;2024-03-06T21:19:47;41.50;;;29.33;;
11422;SDS011;5768;51.476;7.210;2024-03-06T21:24:49;41.97;;;30.63;;
11422;SDS011;5768;51.476;7.210;2024-03-06T21:29:52;38.90;;;29.53;;
11422;SDS011;5768;51.476;7.210;2024-03-06T21:34:57;42.63;;;31.33;;
11422;SDS011;5768;51.476;7.210;2024-03-06T21:40:01;44.00;;;30.20;;
11422;SDS011;5768;51.476;7.210;2024-03-06T21:45:05;44.33;;;31.43;;
11422;SDS011;5768;51.476;7.210;2024-03-06T21:50:10;43.40;;;31.07;;
11422;SDS011;5768;51.476;7.210;2024-03-06T21:55:15;46.53;;;31.60;;
11422;SDS011;5768;51.476;7.210;2024-03-06T22:00:17;47.07;;;33.00;;
11422;SDS011;5768;51.476;7.210;2024-03-06T22:05:22;48.90;;;31.83;;
11422;SDS011;5768;51.476;7.210;2024-03-06T22:10:25;47.07;;;31.63;;
11422;SDS011;5768;51.476;7.210;2024-03-06T22:15:28;47.93;;;32.60;;
11422;SDS011;5768;51.476;7.210;2024-03-06T22:20:31;49.50;;;32.73;;
11422;SDS011;5768;51.476;7.210;2024-03-06T22:25:33;45.60;;;32.27;;
11422;SDS011;5768;51.476;7.210;2024-03-06T22:30:35;53.37;;;32.13;;
11422;SDS011;5768;51.476;7.210;2024-03-06T22:35:41;53.50;;;33.33;;
11422;SDS011;5768;51.476;7.210;2024-03-06T22:40:43;48.90;;;33.03;;
11422;SDS011;5768;51.476;7.210;2024-03-06T22:45:45;46.27;;;31.63;;
11422;SDS011;5768;51.476;7.210;2024-03-06T22:50:49;50.70;;;32.27;;
11422;SDS011;5768;51.476;7.210;2024-03-06T22:55:51;49.27;;;31.97;;
11422;SDS011;5768;51.476;7.210;2024-03-06T23:00:54;52.60;;;32.40;;
11422;SDS011;5768;51.476;7.210;2024-03-06T23:05:58;50.87;;;32.43;;
11422;SDS011;5768;51.476;7.210;2024-03-06T23:11:03;49.80;;;33.17;;
11422;SDS011;5768;51.476;7.210;2024-03-06T23:16:05;53.70;;;34.03;;
11422;SDS011;5768;51.476;7.210;2024-03-06T23:21:09;52.07;;;33.33;;
11422;SDS011;5768;51.476;7.210;2024-03-06T23:26:12;54.17;;;34.07;;
11422;SDS011;5768;51.476;7.210;2024-03-06T23:31:14;54.93;;;33.50;;
11422;SDS011;5768;51.476;7.210;2024-03-06T23:36:18;55.17;;;34.13;;
11422;SDS011;5768;51.476;7.210;2024-03-06T23:41:20;50.30;;;33.13;;
11422;SDS011;5768;51.476;7.210;2024-03-06T23:46:22;50.77;;;33.43;;
11422;SDS011;5768;51.476;7.210;2024-03-06T23:51:26;50.20;;;33.47;;
11422;SDS011;5768;51.476;7.210;2024-03-06T23:56:28;53.97;;;34.37;;
